createdAt,value
2019-05-18T00:00:15.876Z,80.85
2019-05-18T00:02:47.863Z,81.32
2019-05-18T00:05:19.822Z,81.04
2019-05-18T00:07:51.786Z,80.97
2019-05-18T00:10:23.719Z,80.66
2019-05-18T00:12:55.688Z,81.12
2019-05-18T00:15:27.646Z,81.22
2019-05-18T00:17:59.631Z,81.45
2019-05-18T00:20:31.569Z,80.61
2019-05-18T00:23:03.539Z,80.97
2019-05-18T00:25:35.615Z,81.57
2019-05-18T00:28:07.580Z,81.19
2019-05-18T00:30:39.549Z,81.25
2019-05-18T00:33:11.526Z,81.20
2019-05-18T00:35:43.505Z,81.00
2019-05-18T00:38:15.477Z,80.35
2019-05-18T00:40:47.431Z,80.13
2019-05-18T00:43:19.370Z,79.92
2019-05-18T00:45:51.364Z,79.90
2019-05-18T00:48:23.331Z,79.94
2019-05-18T00:50:55.332Z,80.20
2019-05-18T00:53:27.336Z,80.52
2019-05-18T00:55:59.302Z,80.41
2019-05-18T00:58:31.282Z,79.94
2019-05-18T01:01:03.376Z,80.09
2019-05-18T01:03:35.343Z,80.28
2019-05-18T01:06:07.550Z,80.17
2019-05-18T01:08:39.534Z,80.48
2019-05-18T01:11:11.476Z,80.66
2019-05-18T01:13:43.464Z,80.21
2019-05-18T01:16:15.446Z,80.14
2019-05-18T01:18:47.408Z,80.20
2019-05-18T01:21:19.368Z,80.30
2019-05-18T01:23:51.352Z,80.15
2019-05-18T01:26:23.357Z,80.22
2019-05-18T01:29:00.999Z,79.88
2019-05-18T01:31:33.156Z,79.13
2019-05-18T01:34:05.138Z,78.52
2019-05-18T01:36:37.088Z,79.12
2019-05-18T01:39:09.029Z,79.54
2019-05-18T01:41:41.021Z,79.42
2019-05-18T01:44:12.949Z,78.56
2019-05-18T01:46:44.955Z,79.24
2019-05-18T01:49:16.919Z,79.67
2019-05-18T01:51:48.929Z,79.61
2019-05-18T01:54:20.872Z,79.49
2019-05-18T01:56:52.859Z,79.35
2019-05-18T01:59:24.814Z,79.36
2019-05-18T02:01:56.790Z,79.12
2019-05-18T02:04:28.773Z,79.15
2019-05-18T02:07:00.734Z,79.23
2019-05-18T02:09:32.744Z,78.89
2019-05-18T02:12:04.705Z,78.69
2019-05-18T02:14:36.673Z,78.75
2019-05-18T02:17:08.696Z,78.76
2019-05-18T02:19:40.629Z,78.51
2019-05-18T02:22:12.589Z,78.65
2019-05-18T02:24:44.547Z,78.63
2019-05-18T02:27:16.557Z,78.65
2019-05-18T02:29:48.573Z,78.69
2019-05-18T02:32:20.475Z,78.76
2019-05-18T02:34:52.435Z,78.90
2019-05-18T02:37:24.414Z,79.39
2019-05-18T02:39:56.392Z,79.12
2019-05-18T02:42:30.822Z,79.31
2019-05-18T02:45:02.304Z,79.48
2019-05-18T02:47:34.267Z,79.33
2019-05-18T02:50:06.225Z,78.78
2019-05-18T02:52:38.221Z,79.39
2019-05-18T02:55:10.364Z,79.42
2019-05-18T02:57:42.315Z,79.69
2019-05-18T03:00:16.112Z,79.81
2019-05-18T03:02:48.032Z,79.87
2019-05-18T03:05:19.972Z,79.85
2019-05-18T03:07:52.084Z,79.75
2019-05-18T03:10:24.043Z,80.08
2019-05-18T03:12:56.006Z,80.14
2019-05-18T03:15:28.021Z,79.87
2019-05-18T03:18:00.167Z,80.01
2019-05-18T03:20:32.146Z,80.12
2019-05-18T03:23:04.107Z,80.10
2019-05-18T03:25:36.106Z,79.87
2019-05-18T03:28:08.074Z,80.17
2019-05-18T03:30:40.007Z,80.32
2019-05-18T03:33:11.989Z,80.30
2019-05-18T03:35:43.987Z,80.32
2019-05-18T03:38:16.068Z,80.32
2019-05-18T03:40:48.002Z,80.14
2019-05-18T03:43:19.985Z,80.14
2019-05-18T03:45:52.107Z,80.18
2019-05-18T03:48:24.064Z,80.35
2019-05-18T03:50:56.060Z,80.50
2019-05-18T03:53:28.030Z,80.51
2019-05-18T03:56:00.008Z,80.20
2019-05-18T03:58:31.933Z,80.24
2019-05-18T04:01:03.915Z,80.17
2019-05-18T04:03:35.854Z,80.38
2019-05-18T04:06:07.808Z,80.58
2019-05-18T04:08:39.816Z,80.75
2019-05-18T04:11:11.783Z,80.66
2019-05-18T04:13:43.728Z,80.71
2019-05-18T04:16:15.677Z,80.84
2019-05-18T04:18:47.625Z,80.83
2019-05-18T04:21:19.594Z,80.72
2019-05-18T04:23:51.574Z,80.26
2019-05-18T04:26:23.553Z,80.59
2019-05-18T04:28:55.505Z,80.57
2019-05-18T04:31:31.684Z,80.43
2019-05-18T04:34:01.391Z,80.23
2019-05-18T04:36:33.400Z,79.54
2019-05-18T04:39:05.572Z,79.15
2019-05-18T04:41:37.527Z,79.18
2019-05-18T04:44:09.488Z,78.87
2019-05-18T04:46:41.429Z,78.81
2019-05-18T04:49:13.353Z,78.92
2019-05-18T04:51:45.334Z,78.67
2019-05-18T04:54:17.289Z,78.16
2019-05-18T04:56:49.248Z,78.00
2019-05-18T04:59:21.189Z,77.50
2019-05-18T05:01:53.141Z,76.77
2019-05-18T05:04:25.122Z,76.42
2019-05-18T05:06:57.085Z,75.67
2019-05-18T05:09:29.089Z,75.54
2019-05-18T05:12:01.043Z,75.17
2019-05-18T05:14:33.007Z,74.52
2019-05-18T05:17:04.965Z,74.30
2019-05-18T05:19:37.704Z,74.48
2019-05-18T05:22:09.669Z,74.54
2019-05-18T05:24:41.628Z,74.30
2019-05-18T05:27:13.667Z,74.09
2019-05-18T05:29:45.618Z,74.40
2019-05-18T05:32:17.641Z,74.27
2019-05-18T05:34:49.606Z,74.13
2019-05-18T05:37:21.572Z,73.87
2019-05-18T05:39:53.536Z,74.00
2019-05-18T05:42:25.557Z,74.04
2019-05-18T05:44:57.516Z,74.28
2019-05-18T05:47:29.568Z,74.41
2019-05-18T05:50:01.569Z,74.14
2019-05-18T05:52:33.542Z,74.07
2019-05-18T05:55:05.520Z,73.96
2019-05-18T05:57:37.517Z,73.76
2019-05-18T06:00:09.792Z,73.64
2019-05-18T06:02:41.805Z,73.69
2019-05-18T06:05:13.824Z,73.63
2019-05-18T06:07:45.885Z,73.53
2019-05-18T06:10:17.899Z,73.45
2019-05-18T06:12:49.876Z,73.63
2019-05-18T06:15:21.885Z,73.82
2019-05-18T06:21:38.895Z,73.72
2019-05-18T06:24:10.883Z,73.34
2019-05-18T06:26:42.841Z,72.59
2019-05-18T06:29:14.824Z,72.46
2019-05-18T06:31:46.786Z,72.07
2019-05-18T06:34:18.800Z,71.33
2019-05-18T06:36:50.759Z,70.74
2019-05-18T06:39:22.760Z,69.90
2019-05-18T06:41:54.750Z,69.55
2019-05-18T06:44:26.720Z,69.12
2019-05-18T06:46:58.729Z,67.13
2019-05-18T06:49:30.728Z,65.49
2019-05-18T06:52:02.782Z,63.15
2019-05-18T06:54:34.827Z,62.64
2019-05-18T06:57:07.130Z,62.89
2019-05-18T06:59:39.163Z,62.48
2019-05-18T07:02:11.164Z,63.07
2019-05-18T07:04:44.658Z,63.17
2019-05-18T07:07:16.886Z,63.46
2019-05-18T07:09:48.970Z,63.15
2019-05-18T07:12:20.980Z,63.08
2019-05-18T07:14:52.953Z,60.60
2019-05-18T07:17:25.027Z,57.98
2019-05-18T07:19:57.016Z,54.64
2019-05-18T07:22:29.019Z,52.82
2019-05-18T07:25:01.000Z,51.55
2019-05-18T07:27:33.054Z,51.51
2019-05-18T07:30:05.156Z,53.02
2019-05-18T07:32:37.157Z,53.79
2019-05-18T07:35:11.052Z,52.61
2019-05-18T07:37:43.040Z,51.41
2019-05-18T07:40:15.125Z,50.11
2019-05-18T07:42:47.150Z,48.97
2019-05-18T07:45:19.155Z,47.88
2019-05-18T07:47:51.113Z,46.44
2019-05-18T07:50:23.108Z,46.46
2019-05-18T07:52:55.124Z,46.13
2019-05-18T07:55:27.115Z,44.64
2019-05-18T07:57:59.154Z,44.48
2019-05-18T08:00:31.139Z,43.36
2019-05-18T08:03:03.232Z,42.14
2019-05-18T08:05:35.282Z,41.22
2019-05-18T08:08:07.329Z,42.07
2019-05-18T08:10:39.365Z,42.44
2019-05-18T08:13:11.393Z,43.65
2019-05-18T08:15:43.525Z,43.65
2019-05-18T08:18:15.564Z,43.04
2019-05-18T08:20:47.596Z,43.65
2019-05-18T08:23:19.690Z,43.48
2019-05-18T08:25:51.954Z,43.21
2019-05-18T08:28:24.027Z,43.80
2019-05-18T08:30:56.062Z,42.59
2019-05-18T08:33:28.094Z,43.00
2019-05-18T08:36:00.060Z,42.33
2019-05-18T08:38:32.071Z,42.28
2019-05-18T08:41:04.218Z,41.64
2019-05-18T08:43:36.264Z,41.07
2019-05-18T08:46:08.288Z,39.83
2019-05-18T08:48:40.413Z,40.04
2019-05-18T08:51:12.420Z,40.88
2019-05-18T08:53:44.483Z,40.21
2019-05-18T08:56:16.533Z,39.00
2019-05-18T08:58:48.635Z,39.59
2019-05-18T09:01:20.622Z,40.20
2019-05-18T09:03:52.671Z,40.20
2019-05-18T09:06:24.700Z,40.74
2019-05-18T09:08:56.721Z,41.67
2019-05-18T09:11:28.759Z,41.33
2019-05-18T09:14:00.819Z,41.57
2019-05-18T09:16:32.880Z,42.36
2019-05-18T09:19:04.962Z,42.26
2019-05-18T09:21:37.027Z,42.13
2019-05-18T09:24:09.052Z,41.87
2019-05-18T09:26:41.136Z,41.34
2019-05-18T09:29:13.166Z,40.52
2019-05-18T09:31:45.164Z,41.00
2019-05-18T09:34:17.175Z,40.76
2019-05-18T09:36:49.208Z,41.40
2019-05-18T09:39:21.190Z,41.02
2019-05-18T09:41:53.203Z,41.07
2019-05-18T09:44:25.226Z,40.37
2019-05-18T09:46:57.254Z,41.33
2019-05-18T09:49:29.242Z,41.44
2019-05-18T09:52:01.232Z,41.61
2019-05-18T09:54:33.235Z,40.59
2019-05-18T09:57:05.260Z,40.66
2019-05-18T09:59:37.257Z,41.07
2019-05-18T10:02:09.260Z,41.18
2019-05-18T10:04:41.237Z,40.59
2019-05-18T10:07:13.277Z,40.47
2019-05-18T10:09:45.292Z,41.28
2019-05-18T10:12:17.298Z,41.48
2019-05-18T10:14:49.298Z,41.27
2019-05-18T10:17:21.300Z,42.31
2019-05-18T10:19:53.312Z,43.53
2019-05-18T10:22:25.318Z,39.28
2019-05-18T10:24:57.307Z,39.70
2019-05-18T10:27:29.336Z,40.80
2019-05-18T10:30:01.356Z,41.85
2019-05-18T10:32:33.473Z,42.05
2019-05-18T10:35:05.517Z,42.07
2019-05-18T10:37:37.563Z,41.30
2019-05-18T10:40:09.984Z,40.68
2019-05-18T10:42:42.036Z,41.25
2019-05-18T10:45:14.133Z,42.22
2019-05-18T10:47:46.197Z,42.54
2019-05-18T10:50:18.221Z,42.54
2019-05-18T10:52:50.208Z,41.20
2019-05-18T10:55:22.208Z,41.48
2019-05-18T10:57:54.219Z,41.88
2019-05-18T11:00:26.243Z,39.65
2019-05-18T11:02:58.235Z,41.05
2019-05-18T11:05:30.206Z,41.61
2019-05-18T11:08:02.326Z,40.14
2019-05-18T11:10:34.262Z,40.25
2019-05-18T11:13:06.270Z,40.55
2019-05-18T11:15:38.265Z,39.60
2019-05-18T11:18:10.265Z,40.46
2019-05-18T11:20:42.253Z,40.10
2019-05-18T11:23:14.266Z,39.27
2019-05-18T11:25:46.218Z,40.72
2019-05-18T11:28:18.278Z,39.80
2019-05-18T11:30:50.241Z,39.15
2019-05-18T11:33:22.305Z,38.93
2019-05-18T11:35:54.301Z,39.55
2019-05-18T11:38:26.448Z,40.79
2019-05-18T11:40:58.457Z,42.02
2019-05-18T11:43:30.492Z,41.48
2019-05-18T11:46:02.501Z,41.85
2019-05-18T11:48:34.504Z,39.59
2019-05-18T11:51:07.043Z,40.10
2019-05-18T11:53:39.078Z,41.40
2019-05-18T11:56:11.094Z,43.45
2019-05-18T11:58:43.101Z,43.71
2019-05-18T12:01:15.104Z,42.90
2019-05-18T12:03:47.166Z,42.53
2019-05-18T12:06:19.181Z,42.73
2019-05-18T12:08:51.193Z,42.83
2019-05-18T12:11:23.212Z,44.50
2019-05-18T12:13:55.253Z,44.30
2019-05-18T12:16:27.281Z,44.81
2019-05-18T12:18:59.266Z,43.92
2019-05-18T12:21:31.290Z,44.40
2019-05-18T12:24:14.689Z,45.01
2019-05-18T12:26:37.352Z,46.06
2019-05-18T12:29:09.361Z,48.92
2019-05-18T12:31:41.391Z,53.12
2019-05-18T12:34:13.379Z,61.19
2019-05-18T12:36:45.381Z,68.96
2019-05-18T12:39:17.379Z,73.90
2019-05-18T12:41:49.406Z,75.86
2019-05-18T12:44:21.423Z,76.84
2019-05-18T12:46:56.451Z,77.29
2019-05-18T12:49:28.444Z,80.16
2019-05-18T12:52:00.569Z,79.81
2019-05-18T12:54:45.521Z,81.18
2019-05-18T12:57:06.525Z,81.82
2019-05-18T12:59:38.545Z,82.35
2019-05-18T13:02:10.601Z,82.50
2019-05-18T13:04:42.609Z,82.44
2019-05-18T13:10:08.691Z,74.32
2019-05-18T13:12:40.661Z,74.88
2019-05-18T13:15:12.969Z,76.13
2019-05-18T13:17:44.988Z,74.29
2019-05-18T13:20:17.318Z,73.79
2019-05-18T13:22:49.312Z,74.79
2019-05-18T13:25:21.301Z,77.20
2019-05-18T13:27:53.352Z,77.87
2019-05-18T13:30:25.379Z,78.18
2019-05-18T13:32:57.396Z,81.97
2019-05-18T13:35:29.411Z,81.48
2019-05-18T13:38:01.885Z,83.35
2019-05-18T13:40:33.901Z,84.76
2019-05-18T13:43:05.948Z,84.59
2019-05-18T13:45:38.127Z,85.48
2019-05-18T13:48:10.134Z,84.48
2019-05-18T13:50:44.747Z,85.25
2019-05-18T13:53:16.150Z,85.82
2019-05-18T13:55:48.198Z,86.50
2019-05-18T13:58:20.219Z,86.28
2019-05-18T14:00:52.228Z,85.93
2019-05-18T14:03:24.256Z,85.32
2019-05-18T14:05:56.287Z,87.06
2019-05-18T14:08:57.374Z,87.18
2019-05-18T14:27:54.719Z,85.65
2019-05-18T14:39:09.842Z,83.86
2019-05-18T14:45:26.272Z,81.43
2019-05-18T14:48:58.477Z,83.63
2019-05-18T15:05:58.880Z,79.64
2019-05-18T15:09:33.258Z,80.69
2019-05-18T15:12:56.426Z,80.31
2019-05-18T15:20:52.156Z,77.01
2019-05-18T15:22:40.658Z,78.54
2019-05-18T15:25:13.226Z,77.13
2019-05-18T15:27:45.198Z,77.74
2019-05-18T15:30:17.836Z,77.41
2019-05-18T15:32:49.834Z,78.00
2019-05-18T15:35:21.872Z,77.03
2019-05-18T15:37:53.875Z,77.52
2019-05-18T15:40:25.884Z,76.86
2019-05-18T15:42:57.837Z,75.57
2019-05-18T15:45:29.839Z,77.06
2019-05-18T15:48:01.850Z,71.92
2019-05-18T15:50:33.931Z,75.53
2019-05-18T15:53:06.025Z,76.65
2019-05-18T15:55:38.079Z,76.77
2019-05-18T15:58:10.167Z,77.11
2019-05-18T16:00:42.199Z,78.09
2019-05-18T16:03:14.196Z,77.06
2019-05-18T16:05:46.230Z,76.53
2019-05-18T16:08:18.251Z,75.18
2019-05-18T16:10:50.398Z,75.08
2019-05-18T16:13:22.478Z,74.30
2019-05-18T16:15:54.492Z,72.40
2019-05-18T16:18:26.538Z,74.04
2019-05-18T16:20:58.575Z,75.61
2019-05-18T16:23:30.628Z,71.21
2019-05-18T16:26:02.685Z,73.34
2019-05-18T16:28:34.778Z,74.91
2019-05-18T16:31:06.827Z,74.55
2019-05-18T16:33:38.883Z,74.44
2019-05-18T16:36:10.958Z,75.20
2019-05-18T16:38:42.965Z,74.90
2019-05-18T16:41:14.973Z,72.55
2019-05-18T16:43:47.069Z,72.96
2019-05-18T16:46:19.194Z,74.74
2019-05-18T16:48:51.301Z,75.38
2019-05-18T16:51:23.329Z,76.06
2019-05-18T16:53:55.363Z,75.80
2019-05-18T16:56:34.823Z,75.12
2019-05-18T16:59:01.337Z,75.02
2019-05-18T17:01:33.386Z,73.84
2019-05-18T17:04:05.471Z,74.54
2019-05-18T17:06:37.485Z,73.78
2019-05-18T17:09:09.534Z,74.93
2019-05-18T17:11:41.528Z,76.17
2019-05-18T17:14:13.542Z,76.70
2019-05-18T17:16:45.630Z,77.51
2019-05-18T17:19:17.819Z,76.64
2019-05-18T17:21:49.809Z,76.57
2019-05-18T17:24:21.891Z,75.48
2019-05-18T17:26:53.883Z,76.55
2019-05-18T17:29:25.906Z,75.17
2019-05-18T17:31:57.996Z,73.78
2019-05-18T17:34:30.151Z,72.68
2019-05-18T17:37:02.136Z,74.25
2019-05-18T17:39:34.152Z,74.72
2019-05-18T17:42:06.168Z,76.09
2019-05-18T17:44:38.164Z,75.52
2019-05-18T17:47:10.137Z,75.04
2019-05-18T17:49:42.197Z,75.22
2019-05-18T17:52:14.180Z,76.12
2019-05-18T17:54:46.253Z,76.59
2019-05-18T17:57:18.235Z,77.29
2019-05-18T17:59:50.388Z,77.80
2019-05-18T18:02:22.396Z,77.82
2019-05-18T18:04:54.424Z,77.97
2019-05-18T18:07:26.500Z,78.12
2019-05-18T18:09:58.582Z,78.26
2019-05-18T18:12:30.626Z,78.50
2019-05-18T18:15:02.689Z,79.14
2019-05-18T18:17:34.740Z,79.09
2019-05-18T18:20:06.850Z,79.49
2019-05-18T18:22:38.897Z,79.43
2019-05-18T18:25:10.979Z,79.17
2019-05-18T18:27:43.023Z,79.06
2019-05-18T18:30:15.993Z,79.39
2019-05-18T18:32:48.016Z,79.50
2019-05-18T18:35:20.103Z,79.31
2019-05-18T18:37:52.096Z,79.26
2019-05-18T18:40:24.533Z,79.82
2019-05-18T18:42:56.581Z,80.23
2019-05-18T18:45:30.473Z,80.50
2019-05-18T18:48:02.603Z,80.76
2019-05-18T18:50:34.735Z,81.03
2019-05-18T18:53:06.766Z,81.12
2019-05-18T18:55:38.818Z,81.27
2019-05-18T18:58:10.866Z,81.34
2019-05-18T19:00:42.945Z,81.43
2019-05-18T19:03:14.955Z,81.17
2019-05-18T19:05:47.013Z,81.52
2019-05-18T19:08:19.032Z,81.21
2019-05-18T19:10:51.101Z,81.68
2019-05-18T19:13:23.222Z,81.86
2019-05-18T19:15:55.281Z,81.58
2019-05-18T19:18:27.321Z,81.72
2019-05-18T19:20:59.403Z,81.68
2019-05-18T19:23:31.457Z,81.68
2019-05-18T19:26:03.620Z,81.82
2019-05-18T19:28:35.723Z,81.93
2019-05-18T19:31:07.822Z,81.57
2019-05-18T19:33:39.905Z,81.49
2019-05-18T19:36:11.943Z,81.56
2019-05-18T19:38:43.929Z,81.69
2019-05-18T19:41:15.960Z,81.83
2019-05-18T19:43:47.993Z,82.04
2019-05-18T19:46:20.014Z,82.10
2019-05-18T19:48:52.076Z,82.16
2019-05-18T19:51:24.078Z,81.94
2019-05-18T19:53:56.206Z,81.81
2019-05-18T19:56:28.256Z,82.12
2019-05-18T19:59:00.328Z,81.62
2019-05-18T20:01:32.394Z,81.29
2019-05-18T20:04:04.532Z,81.32
2019-05-18T20:06:36.631Z,81.61
2019-05-18T20:09:08.785Z,81.89
2019-05-18T20:11:40.855Z,81.94
2019-05-18T20:14:12.920Z,81.78
2019-05-18T20:16:44.996Z,82.10
2019-05-18T20:19:16.976Z,82.48
2019-05-18T20:21:49.040Z,82.60
2019-05-18T20:24:21.199Z,82.50
2019-05-18T20:26:53.241Z,82.54
2019-05-18T20:29:25.279Z,82.48
2019-05-18T20:31:57.289Z,82.53
2019-05-18T20:34:29.400Z,82.21
2019-05-18T20:37:01.420Z,82.37
2019-05-18T20:39:33.453Z,82.16
2019-05-18T20:42:05.466Z,82.44
2019-05-18T20:44:37.485Z,81.88
2019-05-18T20:47:09.495Z,81.65
2019-05-18T20:49:41.507Z,82.29
2019-05-18T20:52:13.506Z,82.48
2019-05-18T20:54:45.569Z,82.82
2019-05-18T20:57:17.590Z,83.11
2019-05-18T20:59:49.650Z,83.00
2019-05-18T21:02:21.661Z,83.30
2019-05-18T21:04:53.642Z,83.34
2019-05-18T21:07:25.680Z,83.22
2019-05-18T21:09:57.706Z,83.33
2019-05-18T21:12:29.794Z,83.15
2019-05-18T21:15:01.860Z,83.08
2019-05-18T21:17:33.854Z,83.15
2019-05-18T21:20:06.030Z,83.40
2019-05-18T21:22:38.095Z,82.89
2019-05-18T21:25:10.289Z,82.36
2019-05-18T21:27:42.336Z,82.80
2019-05-18T21:30:14.373Z,82.80
2019-05-18T21:32:46.358Z,83.13
2019-05-18T21:35:18.405Z,83.41
2019-05-18T21:37:50.400Z,82.81
2019-05-18T21:40:22.429Z,82.92
2019-05-18T21:42:54.454Z,83.12
2019-05-18T21:45:26.472Z,82.98
2019-05-18T21:47:58.459Z,83.17
2019-05-18T21:50:30.464Z,83.07
2019-05-18T21:53:02.448Z,83.04
2019-05-18T21:55:34.760Z,82.97
2019-05-18T21:58:06.754Z,82.67
2019-05-18T22:00:38.843Z,82.61
2019-05-18T22:03:10.875Z,82.73
2019-05-18T22:05:42.869Z,82.61
2019-05-18T22:08:14.869Z,82.55
2019-05-18T22:10:46.887Z,82.60
2019-05-18T22:13:18.916Z,82.85
2019-05-18T22:15:50.885Z,82.70
2019-05-18T22:18:24.891Z,82.17
2019-05-18T22:20:56.781Z,82.35
2019-05-18T22:23:28.753Z,82.15
2019-05-18T22:26:00.725Z,81.91
2019-05-18T22:28:32.785Z,82.45
2019-05-18T22:31:04.855Z,82.64
2019-05-18T22:33:36.874Z,82.72
2019-05-18T22:36:08.815Z,82.35
2019-05-18T22:38:40.807Z,82.16
2019-05-18T22:41:12.845Z,82.52
2019-05-18T22:43:44.894Z,82.68
2019-05-18T22:46:16.880Z,82.65
2019-05-18T22:48:48.862Z,82.40
2019-05-18T22:51:20.825Z,82.38
2019-05-18T22:53:52.848Z,81.72
2019-05-18T22:56:24.818Z,80.85
2019-05-18T22:58:56.829Z,81.01
2019-05-18T23:01:28.830Z,81.27
2019-05-18T23:04:00.866Z,81.30
2019-05-18T23:06:32.902Z,81.51
2019-05-18T23:09:05.592Z,81.17
2019-05-18T23:11:37.597Z,81.57
2019-05-18T23:14:09.589Z,81.60
2019-05-18T23:16:41.594Z,81.95
2019-05-18T23:19:13.622Z,81.48
2019-05-18T23:21:45.573Z,81.84
2019-05-18T23:24:17.565Z,81.56
2019-05-18T23:26:49.542Z,81.65
2019-05-18T23:29:21.552Z,81.96
2019-05-18T23:31:53.543Z,81.98
2019-05-18T23:34:25.588Z,82.24
2019-05-18T23:36:57.553Z,82.30
2019-05-18T23:39:29.518Z,82.27
2019-05-18T23:42:01.493Z,82.31
2019-05-18T23:44:33.476Z,82.27
2019-05-18T23:47:05.451Z,82.31
2019-05-18T23:49:37.472Z,82.44
2019-05-18T23:52:09.455Z,81.77
2019-05-18T23:54:41.454Z,81.45
2019-05-18T23:57:13.418Z,81.47
2019-05-18T23:59:45.392Z,81.82
